Time;durP1;ratioP1;P1;durP2;ratioP2;P2;SDS_P1;SDS_P2;PMS_P1;PMS_P2;Temp;Humidity;BMP_temperature;BMP_pressure;BME280_temperature;BME280_humidity;BME280_pressure;Samples;Min_cycle;Max_cycle;Signal;HPM_P1;HPM_P2
2022/05/31 00:01:16;;;;;;;0.95;0.50;;;;;;;;;;4974586;28;20034;-38
2022/05/31 00:03:41;;;;;;;0.35;0.35;;;;;;;;;;4974487;28;20097;-38
2022/05/31 00:06:07;;;;;;;3.00;0.77;;;;;;;;;;4974367;28;20039;-38
2022/05/31 00:08:33;;;;;;;0.60;0.60;;;;;;;;;;4974735;28;20033;-38
2022/05/31 00:11:00;;;;;;;2.05;1.85;;;;;;;;;;4974339;28;20532;-38
2022/05/31 00:13:26;;;;;;;0.95;0.60;;;;;;;;;;4974191;28;20050;-38
2022/05/31 00:15:51;;;;;;;5.93;0.68;;;;;;;;;;4974936;28;20034;-38
2022/05/31 00:18:17;;;;;;;1.00;0.70;;;;;;;;;;4974815;28;20054;-38
2022/05/31 00:20:42;;;;;;;2.10;0.55;;;;;;;;;;4974931;28;20122;-38
2022/05/31 00:23:08;;;;;;;0.68;0.50;;;;;;;;;;4974674;28;20025;-39
2022/05/31 00:25:33;;;;;;;0.90;0.70;;;;;;;;;;4974944;28;20046;-38
2022/05/31 00:27:59;;;;;;;0.70;0.60;;;;;;;;;;4974789;28;20397;-38
2022/05/31 00:30:24;;;;;;;1.10;0.63;;;;;;;;;;4974715;28;20477;-38
2022/05/31 00:32:50;;;;;;;0.60;0.43;;;;;;;;;;4973372;28;20089;-38
2022/05/31 00:35:24;;;;;;;1.85;0.28;;;;;;;;;;4973188;28;20030;-39
2022/05/31 00:37:51;;;;;;;0.60;0.50;;;;;;;;;;4974751;28;20027;-39
2022/05/31 00:40:18;;;;;;;0.50;0.50;;;;;;;;;;4974484;28;20421;-38
2022/05/31 00:42:46;;;;;;;0.98;0.60;;;;;;;;;;4974206;28;20053;-38
2022/05/31 00:45:11;;;;;;;0.60;0.60;;;;;;;;;;4988812;28;20450;-38
2022/05/31 00:47:37;;;;;;;0.65;0.63;;;;;;;;;;4974697;28;20126;-38
2022/05/31 00:50:08;;;;;;;0.82;0.63;;;;;;;;;;4972918;28;20027;-38
2022/05/31 00:52:36;;;;;;;0.90;0.63;;;;;;;;;;4989196;28;20031;-38
2022/05/31 00:55:07;;;;;;;1.13;0.70;;;;;;;;;;4972890;28;20019;-38
2022/05/31 00:57:34;;;;;;;1.70;0.60;;;;;;;;;;4972915;28;20046;-38
2022/05/31 01:00:03;;;;;;;2.80;1.52;;;;;;;;;;4988943;28;20023;-39
2022/05/31 01:02:29;;;;;;;1.02;0.85;;;;;;;;;;4974141;28;20090;-38
2022/05/31 01:05:00;;;;;;;1.10;0.93;;;;;;;;;;4974100;28;20023;-38
2022/05/31 01:07:26;;;;;;;0.65;0.63;;;;;;;;;;4988856;28;20046;-38
2022/05/31 01:09:52;;;;;;;0.73;0.70;;;;;;;;;;4973932;28;20018;-38
2022/05/31 01:12:37;;;;;;;1.48;0.65;;;;;;;;;;4973778;28;20106;-38
2022/05/31 01:15:21;;;;;;;0.50;0.50;;;;;;;;;;4973748;28;20042;-39
2022/05/31 01:18:05;;;;;;;0.75;0.52;;;;;;;;;;4973830;28;20041;-38
2022/05/31 01:20:49;;;;;;;1.92;0.80;;;;;;;;;;4973824;28;20046;-38
2022/05/31 01:23:18;;;;;;;0.52;0.45;;;;;;;;;;4972467;28;20042;-38
2022/05/31 01:25:52;;;;;;;0.40;0.30;;;;;;;;;;4988561;28;20038;-38
2022/05/31 01:28:20;;;;;;;0.85;0.80;;;;;;;;;;4972306;28;20027;-38
2022/05/31 01:30:51;;;;;;;3.75;0.50;;;;;;;;;;4973670;28;20023;-38
2022/05/31 01:33:21;;;;;;;1.58;0.68;;;;;;;;;;4973508;28;20031;-39
2022/05/31 01:35:46;;;;;;;1.92;0.82;;;;;;;;;;4973442;28;20042;-38
2022/05/31 01:38:17;;;;;;;0.82;0.60;;;;;;;;;;4973693;28;20433;-38
2022/05/31 01:41:19;;;;;;;0.88;0.70;;;;;;;;;;4972023;28;20082;-38
2022/05/31 01:43:46;;;;;;;0.82;0.82;;;;;;;;;;4916569;29;20039;-38
2022/05/31 01:46:15;;;;;;;1.20;0.90;;;;;;;;;;4960539;28;20138;-38
2022/05/31 01:48:41;;;;;;;1.35;0.77;;;;;;;;;;4973536;28;20037;-38
2022/05/31 01:51:06;;;;;;;3.05;1.13;;;;;;;;;;4973468;28;20046;-38
2022/05/31 01:53:32;;;;;;;1.20;0.90;;;;;;;;;;4973265;28;20445;-38
2022/05/31 01:55:58;;;;;;;2.97;1.00;;;;;;;;;;4987120;28;20477;-38
2022/05/31 01:58:25;;;;;;;1.02;0.93;;;;;;;;;;4971810;28;20054;-38
2022/05/31 02:00:50;;;;;;;1.90;0.85;;;;;;;;;;4988076;28;20018;-38
2022/05/31 02:03:16;;;;;;;1.08;0.80;;;;;;;;;;4971588;28;20526;-38
2022/05/31 02:05:50;;;;;;;0.90;0.82;;;;;;;;;;4972891;28;20035;-38
2022/05/31 02:08:18;;;;;;;2.10;0.90;;;;;;;;;;4987802;28;20035;-38
2022/05/31 02:10:45;;;;;;;0.75;0.65;;;;;;;;;;4987788;28;20449;-39
2022/05/31 02:13:10;;;;;;;1.33;0.73;;;;;;;;;;4987534;28;20047;-38
2022/05/31 02:15:47;;;;;;;1.23;0.90;;;;;;;;;;4987844;28;20038;-38
2022/05/31 02:21:40;;;;;;;0.85;0.77;;;;;;;;;;4972620;28;20042;-38
2022/05/31 02:24:09;;;;;;;1.00;0.95;;;;;;;;;;4987501;28;20027;-39
2022/05/31 02:26:34;;;;;;;3.53;0.98;;;;;;;;;;4971292;28;20496;-38
2022/05/31 02:29:00;;;;;;;0.80;0.60;;;;;;;;;;4971392;28;20027;-38
2022/05/31 02:31:26;;;;;;;1.10;0.75;;;;;;;;;;4972568;28;20057;-38
2022/05/31 02:33:52;;;;;;;1.10;0.80;;;;;;;;;;4972621;28;20220;-38
2022/05/31 02:36:18;;;;;;;0.80;0.80;;;;;;;;;;4972523;28;20113;-38
2022/05/31 02:38:43;;;;;;;1.38;0.80;;;;;;;;;;4972523;28;20026;-38
2022/05/31 02:41:09;;;;;;;1.60;0.85;;;;;;;;;;4971246;28;20033;-38
2022/05/31 02:43:34;;;;;;;1.15;0.98;;;;;;;;;;4971285;28;20125;-38
2022/05/31 02:46:00;;;;;;;1.60;0.80;;;;;;;;;;4971264;28;20042;-38
2022/05/31 02:48:26;;;;;;;1.25;0.80;;;;;;;;;;4971258;28;20540;-38
2022/05/31 02:50:51;;;;;;;0.57;0.57;;;;;;;;;;4987421;28;20019;-38
2022/05/31 02:53:16;;;;;;;0.82;0.70;;;;;;;;;;4972347;28;20034;-38
2022/05/31 02:55:42;;;;;;;1.00;0.77;;;;;;;;;;4971189;28;20125;-43
2022/05/31 02:58:26;;;;;;;2.00;1.00;;;;;;;;;;4972780;28;20081;-39
2022/05/31 03:01:22;;;;;;;1.42;0.80;;;;;;;;;;4953072;28;20043;-37
2022/05/31 03:04:06;;;;;;;3.33;1.15;;;;;;;;;;4972314;28;20042;-38
2022/05/31 03:07:09;;;;;;;1.48;0.95;;;;;;;;;;4950549;28;20047;-38
2022/05/31 03:09:48;;;;;;;2.42;0.88;;;;;;;;;;4974893;28;20486;-38
2022/05/31 03:12:17;;;;;;;1.05;0.93;;;;;;;;;;4990998;28;20038;-39
2022/05/31 03:14:49;;;;;;;1.05;0.90;;;;;;;;;;4974860;28;20639;-38
2022/05/31 03:17:27;;;;;;;1.13;0.60;;;;;;;;;;4975938;28;20707;-38
2022/05/31 03:20:03;;;;;;;2.40;1.13;;;;;;;;;;4976006;28;20043;-38
2022/05/31 03:22:31;;;;;;;1.75;0.93;;;;;;;;;;4974609;28;20035;-38
2022/05/31 03:24:59;;;;;;;1.23;0.80;;;;;;;;;;4976162;28;20018;-39
2022/05/31 03:27:25;;;;;;;2.28;0.73;;;;;;;;;;4990657;28;20147;-38
2022/05/31 03:29:53;;;;;;;1.15;0.70;;;;;;;;;;4975826;28;20018;-38
2022/05/31 03:32:18;;;;;;;0.50;0.50;;;;;;;;;;4976260;28;20031;-38
2022/05/31 03:34:44;;;;;;;2.40;1.27;;;;;;;;;;4974422;28;20022;-38
2022/05/31 03:37:10;;;;;;;0.75;0.73;;;;;;;;;;4990473;28;20027;-38
2022/05/31 03:39:37;;;;;;;0.68;0.68;;;;;;;;;;4990558;28;20054;-38
2022/05/31 03:42:04;;;;;;;0.77;0.70;;;;;;;;;;4990473;28;20066;-39
2022/05/31 03:44:29;;;;;;;0.73;0.60;;;;;;;;;;4990523;28;20058;-38
2022/05/31 03:47:16;;;;;;;2.78;0.73;;;;;;;;;;4974079;28;20042;-38
2022/05/31 03:50:04;;;;;;;1.27;0.98;;;;;;;;;;4977161;28;20497;-39
2022/05/31 03:52:30;;;;;;;1.27;0.85;;;;;;;;;;4990409;28;20073;-38
2022/05/31 03:54:55;;;;;;;0.85;0.70;;;;;;;;;;4974006;28;20498;-38
2022/05/31 03:57:42;;;;;;;1.52;0.70;;;;;;;;;;4974079;28;20038;-38
2022/05/31 04:00:26;;;;;;;0.68;0.65;;;;;;;;;;4975377;28;20408;-38
2022/05/31 04:03:10;;;;;;;1.33;0.95;;;;;;;;;;4990043;28;20101;-38
2022/05/31 04:05:35;;;;;;;0.77;0.65;;;;;;;;;;4990042;28;20122;-38
2022/05/31 04:08:02;;;;;;;2.47;0.93;;;;;;;;;;4990010;28;20390;-38
2022/05/31 04:10:29;;;;;;;0.68;0.55;;;;;;;;;;4989979;28;20026;-38
2022/05/31 04:12:55;;;;;;;1.20;1.05;;;;;;;;;;4973656;28;20050;-38
2022/05/31 04:15:43;;;;;;;1.05;0.85;;;;;;;;;;4964854;28;20631;-38
2022/05/31 04:18:10;;;;;;;1.45;1.02;;;;;;;;;;4974126;28;20051;-39
2022/05/31 04:20:37;;;;;;;1.02;0.85;;;;;;;;;;4974890;28;20031;-38
2022/05/31 04:26:26;;;;;;;1.60;1.50;;;;;;;;;;4974572;28;20043;-38
2022/05/31 04:29:10;;;;;;;0.95;0.95;;;;;;;;;;4974765;28;20034;-38
2022/05/31 04:31:54;;;;;;;1.20;0.95;;;;;;;;;;4974983;28;20549;-38
2022/05/31 04:34:40;;;;;;;1.50;1.02;;;;;;;;;;4989615;28;20485;-38
2022/05/31 04:37:06;;;;;;;0.95;0.70;;;;;;;;;;4974512;28;20026;-38
2022/05/31 04:40:04;;;;;;;2.75;0.98;;;;;;;;;;4966849;28;20039;-38
2022/05/31 04:42:47;;;;;;;0.70;0.65;;;;;;;;;;4974810;28;20409;-38
2022/05/31 04:45:31;;;;;;;3.40;1.10;;;;;;;;;;4974494;28;20125;-38
2022/05/31 04:48:09;;;;;;;0.75;0.60;;;;;;;;;;4989191;28;20385;-38
2022/05/31 04:50:35;;;;;;;1.67;0.80;;;;;;;;;;4989287;28;20033;-38
2022/05/31 04:53:01;;;;;;;2.85;0.90;;;;;;;;;;4989136;28;20026;-38
2022/05/31 04:55:30;;;;;;;1.67;1.30;;;;;;;;;;4972859;28;20117;-38
2022/05/31 04:57:58;;;;;;;1.25;0.90;;;;;;;;;;4989092;28;20058;-39
2022/05/31 05:00:23;;;;;;;25.88;2.38;;;;;;;;;;4988971;28;20141;-38
2022/05/31 05:02:58;;;;;;;2.33;1.20;;;;;;;;;;4989296;28;20034;-38
2022/05/31 05:05:27;;;;;;;2.15;0.93;;;;;;;;;;4988879;28;20041;-38
2022/05/31 05:07:57;;;;;;;1.10;0.60;;;;;;;;;;4988919;28;20432;-38
2022/05/31 05:10:25;;;;;;;1.08;0.70;;;;;;;;;;4988839;28;20034;-40
2022/05/31 05:13:00;;;;;;;2.88;1.05;;;;;;;;;;4988659;28;20559;-38
2022/05/31 05:15:46;;;;;;;0.82;0.50;;;;;;;;;;4962687;28;20496;-38
2022/05/31 05:18:12;;;;;;;1.65;1.00;;;;;;;;;;4973904;28;20030;-38
2022/05/31 05:20:40;;;;;;;0.80;0.80;;;;;;;;;;4988710;28;20114;-38
2022/05/31 05:23:06;;;;;;;2.80;1.00;;;;;;;;;;4973602;28;20114;-38
2022/05/31 05:25:32;;;;;;;1.45;0.93;;;;;;;;;;4972363;28;20031;-39
2022/05/31 05:30:38;;;;;;;3.20;0.88;;;;;;;;;;4988569;28;20078;-38
2022/05/31 05:30:54;;;;;;;1.38;1.20;;;;;;;;;;4988393;28;20057;-38
2022/05/31 05:33:20;;;;;;;1.95;0.80;;;;;;;;;;4973864;28;20785;-38
2022/05/31 05:36:21;;;;;;;0.70;0.70;;;;;;;;;;4932594;29;20478;-38
2022/05/31 05:38:50;;;;;;;2.03;0.70;;;;;;;;;;4961670;28;20042;-38
2022/05/31 05:41:34;;;;;;;1.85;1.08;;;;;;;;;;4973790;28;20033;-38
2022/05/31 05:44:18;;;;;;;1.02;0.88;;;;;;;;;;4973364;28;20113;-38
2022/05/31 05:46:45;;;;;;;0.70;0.70;;;;;;;;;;4988390;28;20485;-38
2022/05/31 05:49:10;;;;;;;0.85;0.73;;;;;;;;;;4973280;28;20019;-38
2022/05/31 05:51:37;;;;;;;1.88;0.90;;;;;;;;;;4988186;28;20031;-38
2022/05/31 05:54:21;;;;;;;1.15;0.60;;;;;;;;;;4973489;28;20127;-38
2022/05/31 05:57:05;;;;;;;1.25;1.08;;;;;;;;;;4973324;28;20105;-38
2022/05/31 05:59:49;;;;;;;0.85;0.60;;;;;;;;;;4973467;28;20093;-38
2022/05/31 06:02:33;;;;;;;3.40;0.98;;;;;;;;;;4973107;28;20508;-38
2022/05/31 06:05:22;;;;;;;2.70;0.90;;;;;;;;;;4972826;28;20085;-39
2022/05/31 06:07:47;;;;;;;1.38;1.08;;;;;;;;;;4973081;28;20035;-38
2022/05/31 06:10:21;;;;;;;1.13;0.80;;;;;;;;;;4972908;28;20385;-38
2022/05/31 06:12:55;;;;;;;1.05;1.02;;;;;;;;;;4972681;28;20053;-38
2022/05/31 06:15:22;;;;;;;2.47;0.80;;;;;;;;;;4971521;28;20126;-38
2022/05/31 06:17:49;;;;;;;3.95;0.82;;;;;;;;;;4971627;28;20035;-38
2022/05/31 06:20:15;;;;;;;0.73;0.73;;;;;;;;;;4972715;28;20058;-38
2022/05/31 06:22:41;;;;;;;0.75;0.70;;;;;;;;;;4987674;28;20057;-38
2022/05/31 06:25:28;;;;;;;0.55;0.55;;;;;;;;;;4972882;28;20062;-38
2022/05/31 06:28:17;;;;;;;2.38;0.60;;;;;;;;;;4969400;28;20093;-38
2022/05/31 06:30:43;;;;;;;3.25;0.98;;;;;;;;;;4987601;28;20038;-38
2022/05/31 06:33:09;;;;;;;1.13;0.90;;;;;;;;;;4971501;28;20026;-38
2022/05/31 06:35:36;;;;;;;0.73;0.70;;;;;;;;;;4972866;28;20039;-39
2022/05/31 06:38:03;;;;;;;7.85;1.67;;;;;;;;;;4972585;28;20054;-38
2022/05/31 06:40:30;;;;;;;0.85;0.50;;;;;;;;;;4971150;28;20118;-38
2022/05/31 06:43:10;;;;;;;2.13;0.93;;;;;;;;;;4972431;28;20371;-39
2022/05/31 06:45:54;;;;;;;1.05;0.68;;;;;;;;;;4972681;28;20054;-38
2022/05/31 06:48:35;;;;;;;1.30;0.93;;;;;;;;;;4972559;28;20031;-38
2022/05/31 06:57:34;;;;;;;0.98;0.75;;;;;;;;;;4972608;28;20042;-38
2022/05/31 07:00:11;;;;;;;3.05;0.70;;;;;;;;;;4987290;28;20031;-38
2022/05/31 07:02:36;;;;;;;1.00;0.73;;;;;;;;;;4987320;28;20037;-38
2022/05/31 07:05:02;;;;;;;2.95;0.93;;;;;;;;;;4972287;28;20018;-38
2022/05/31 07:07:28;;;;;;;1.20;0.85;;;;;;;;;;4972292;28;20477;-38
2022/05/31 07:10:13;;;;;;;2.25;0.70;;;;;;;;;;4972544;28;20054;-38
2022/05/31 07:13:11;;;;;;;0.52;0.52;;;;;;;;;;4949649;28;20409;-38
2022/05/31 07:16:03;;;;;;;2.15;0.85;;;;;;;;;;4969066;28;20031;-38
2022/05/31 07:18:52;;;;;;;0.90;0.77;;;;;;;;;;4972238;28;20035;-38
2022/05/31 07:21:17;;;;;;;1.67;0.52;;;;;;;;;;4987049;28;20038;-38
2022/05/31 07:23:43;;;;;;;0.75;0.57;;;;;;;;;;4972164;28;20026;-38
2022/05/31 07:26:11;;;;;;;4.47;0.82;;;;;;;;;;4986488;28;20055;-39
2022/05/31 07:28:37;;;;;;;1.05;0.93;;;;;;;;;;4970864;28;20073;-39
2022/05/31 07:31:05;;;;;;;1.65;0.80;;;;;;;;;;4970700;28;20508;-38
2022/05/31 07:33:33;;;;;;;2.38;0.70;;;;;;;;;;4987076;28;20378;-38
2022/05/31 07:36:01;;;;;;;1.15;0.80;;;;;;;;;;4987001;28;20034;-38
2022/05/31 07:38:27;;;;;;;1.52;1.00;;;;;;;;;;4986860;28;20054;-39
2022/05/31 07:40:53;;;;;;;1.13;0.70;;;;;;;;;;4971203;28;20413;-38
2022/05/31 07:43:20;;;;;;;4.70;0.90;;;;;;;;;;4987400;28;20065;-38
2022/05/31 07:45:48;;;;;;;1.45;0.80;;;;;;;;;;4971021;28;20097;-38
2022/05/31 07:48:14;;;;;;;0.95;0.77;;;;;;;;;;4971110;28;20106;-38
2022/05/31 07:50:42;;;;;;;1.08;0.70;;;;;;;;;;4987376;28;20393;-38
2022/05/31 07:53:30;;;;;;;3.20;1.55;;;;;;;;;;4972069;28;20022;-38
2022/05/31 07:56:14;;;;;;;3.33;1.00;;;;;;;;;;4975793;28;20090;-38
2022/05/31 07:58:59;;;;;;;1.08;0.80;;;;;;;;;;4976120;28;20038;-38
2022/05/31 08:01:53;;;;;;;3.28;0.80;;;;;;;;;;4956574;28;20090;-39
2022/05/31 08:04:31;;;;;;;0.80;0.60;;;;;;;;;;4990495;28;20039;-38
2022/05/31 08:06:59;;;;;;;2.67;0.73;;;;;;;;;;4975560;28;20441;-38
2022/05/31 08:09:25;;;;;;;1.58;0.60;;;;;;;;;;4975811;28;20046;-38
2022/05/31 08:11:51;;;;;;;1.95;0.98;;;;;;;;;;4975652;28;20065;-39
2022/05/31 08:14:16;;;;;;;1.05;0.80;;;;;;;;;;4975181;28;20133;-38
2022/05/31 08:16:42;;;;;;;1.42;0.90;;;;;;;;;;4974194;28;20031;-38
2022/05/31 08:19:08;;;;;;;1.33;1.13;;;;;;;;;;4975642;28;20054;-38
2022/05/31 08:21:33;;;;;;;1.48;0.90;;;;;;;;;;4975673;28;20042;-38
2022/05/31 08:24:07;;;;;;;6.22;1.10;;;;;;;;;;4975634;28;20466;-38
2022/05/31 08:26:33;;;;;;;2.20;1.40;;;;;;;;;;4975498;28;20497;-38
2022/05/31 08:28:58;;;;;;;1.55;1.23;;;;;;;;;;4975634;28;20034;-38
2022/05/31 08:31:26;;;;;;;1.88;1.20;;;;;;;;;;4975152;28;20067;-38
2022/05/31 08:33:52;;;;;;;2.40;1.20;;;;;;;;;;4975212;28;20011;-38
2022/05/31 08:36:18;;;;;;;1.30;0.95;;;;;;;;;;4975018;28;20033;-39
2022/05/31 08:38:43;;;;;;;1.15;1.02;;;;;;;;;;4975227;28;20015;-38
2022/05/31 08:41:09;;;;;;;1.05;0.82;;;;;;;;;;4974949;28;20037;-38
2022/05/31 08:43:47;;;;;;;3.78;1.50;;;;;;;;;;4973734;28;20022;-38
2022/05/31 08:46:13;;;;;;;2.65;1.15;;;;;;;;;;4974816;28;20098;-38
2022/05/31 08:48:47;;;;;;;12.38;1.98;;;;;;;;;;4974946;28;20169;-38
2022/05/31 08:52:03;;;;;;;1.88;1.30;;;;;;;;;;4973671;28;20031;-38
2022/05/31 08:57:00;;;;;;;1.58;1.02;;;;;;;;;;4973374;28;20066;-39
2022/05/31 08:59:52;;;;;;;4.10;1.27;;;;;;;;;;4989775;28;20030;-38
2022/05/31 09:02:28;;;;;;;2.65;1.77;;;;;;;;;;4989380;28;20073;-38
2022/05/31 09:04:59;;;;;;;5.80;1.50;;;;;;;;;;4974050;28;20038;-38
2022/05/31 09:07:31;;;;;;;4.35;1.67;;;;;;;;;;4973222;28;20039;-38
2022/05/31 09:09:57;;;;;;;4.85;1.83;;;;;;;;;;4974522;28;20038;-38
2022/05/31 09:12:26;;;;;;;5.38;1.48;;;;;;;;;;4973059;28;20030;-39
2022/05/31 09:14:57;;;;;;;2.80;1.58;;;;;;;;;;4974428;28;20485;-38
2022/05/31 09:17:29;;;;;;;5.45;1.95;;;;;;;;;;4974238;28;20097;-38
2022/05/31 09:20:00;;;;;;;7.82;2.08;;;;;;;;;;4974661;28;20031;-39
2022/05/31 09:22:25;;;;;;;2.85;1.77;;;;;;;;;;4974153;28;20031;-38
2022/05/31 09:24:51;;;;;;;3.40;2.03;;;;;;;;;;4974459;28;20658;-38
2022/05/31 09:27:28;;;;;;;3.83;1.70;;;;;;;;;;4974020;28;20129;-39
2022/05/31 09:30:01;;;;;;;1.80;1.65;;;;;;;;;;4974193;28;20058;-38
2022/05/31 09:32:30;;;;;;;4.22;1.95;;;;;;;;;;4988868;28;20401;-38
2022/05/31 09:35:07;;;;;;;3.85;2.20;;;;;;;;;;4974091;28;20030;-38
2022/05/31 09:37:51;;;;;;;2.60;2.03;;;;;;;;;;4974013;28;20034;-38
2022/05/31 09:40:26;;;;;;;2.83;1.60;;;;;;;;;;4974073;28;20034;-38
2022/05/31 09:43:07;;;;;;;4.30;1.92;;;;;;;;;;4974198;28;20513;-38
2022/05/31 09:45:36;;;;;;;2.37;1.50;;;;;;;;;;4973730;28;20492;-38
2022/05/31 09:48:03;;;;;;;4.18;1.60;;;;;;;;;;4974094;28;20034;-38
2022/05/31 09:50:29;;;;;;;3.92;1.77;;;;;;;;;;4973699;28;20489;-39
2022/05/31 09:52:58;;;;;;;7.35;2.13;;;;;;;;;;4973535;28;20034;-38
2022/05/31 09:58:40;;;;;;;5.35;1.83;;;;;;;;;;4974038;28;20085;-38
2022/05/31 10:01:26;;;;;;;2.30;1.52;;;;;;;;;;4973598;28;20077;-38
2022/05/31 10:04:12;;;;;;;1.23;1.13;;;;;;;;;;4972217;28;20035;-38
2022/05/31 10:06:50;;;;;;;2.67;1.55;;;;;;;;;;4973422;28;20485;-38
2022/05/31 10:09:18;;;;;;;2.35;1.88;;;;;;;;;;4973362;28;20023;-38
2022/05/31 10:11:45;;;;;;;3.20;1.85;;;;;;;;;;4973426;28;20046;-38
2022/05/31 10:14:31;;;;;;;2.67;1.48;;;;;;;;;;4973104;28;20072;-38
2022/05/31 10:17:11;;;;;;;1.33;1.17;;;;;;;;;;4972652;28;20031;-38
2022/05/31 10:19:37;;;;;;;2.40;1.77;;;;;;;;;;4973352;28;20018;-38
2022/05/31 10:22:18;;;;;;;4.95;1.35;;;;;;;;;;4973575;28;20128;-39
2022/05/31 10:25:18;;;;;;;2.40;1.45;;;;;;;;;;4973098;28;20035;-38
2022/05/31 10:28:40;;;;;;;3.60;1.60;;;;;;;;;;4951444;29;20409;-39
2022/05/31 10:31:20;;;;;;;1.45;1.35;;;;;;;;;;4951385;29;20213;-38
2022/05/31 10:34:04;;;;;;;4.80;1.63;;;;;;;;;;4966161;28;20038;-38
2022/05/31 10:36:32;;;;;;;3.80;1.85;;;;;;;;;;4973313;28;20031;-38
2022/05/31 10:39:06;;;;;;;3.38;1.77;;;;;;;;;;4973084;28;20029;-39
2022/05/31 10:41:32;;;;;;;5.30;2.30;;;;;;;;;;4973052;28;20027;-38
2022/05/31 10:44:01;;;;;;;3.30;1.73;;;;;;;;;;4973089;28;20030;-38
2022/05/31 10:46:29;;;;;;;3.17;1.83;;;;;;;;;;4972900;28;20516;-38
2022/05/31 10:48:56;;;;;;;2.88;2.22;;;;;;;;;;4973072;28;20086;-38
2022/05/31 10:51:34;;;;;;;2.45;1.63;;;;;;;;;;4972911;28;20038;-38
2022/05/31 10:54:19;;;;;;;2.97;1.80;;;;;;;;;;4972954;28;20042;-39
2022/05/31 10:56:51;;;;;;;3.53;1.73;;;;;;;;;;4973001;28;20111;-38
2022/05/31 10:59:23;;;;;;;2.42;1.52;;;;;;;;;;4972853;28;20042;-39
2022/05/31 11:01:51;;;;;;;2.55;1.75;;;;;;;;;;4972921;28;20022;-38
2022/05/31 11:04:35;;;;;;;2.28;1.50;;;;;;;;;;4972955;28;20358;-38
2022/05/31 11:07:20;;;;;;;3.40;1.73;;;;;;;;;;4972853;28;20050;-38
2022/05/31 11:13:05;;;;;;;5.65;1.98;;;;;;;;;;4971410;28;20074;-38
2022/05/31 11:15:44;;;;;;;1.98;1.75;;;;;;;;;;4957162;28;20137;-38
2022/05/31 11:18:13;;;;;;;2.70;2.00;;;;;;;;;;4972702;28;20109;-39
2022/05/31 11:20:42;;;;;;;4.32;2.13;;;;;;;;;;4972770;28;20014;-38
2022/05/31 11:23:26;;;;;;;3.10;1.70;;;;;;;;;;4972685;28;20077;-38
2022/05/31 11:26:05;;;;;;;4.82;1.92;;;;;;;;;;4972443;28;20034;-38
2022/05/31 11:28:49;;;;;;;5.90;2.45;;;;;;;;;;4975419;28;20034;-38
2022/05/31 11:31:34;;;;;;;3.67;2.45;;;;;;;;;;4976210;28;20401;-39
2022/05/31 11:34:11;;;;;;;6.72;2.65;;;;;;;;;;4976251;28;20489;-39
2022/05/31 11:36:48;;;;;;;3.83;2.13;;;;;;;;;;4976298;28;20056;-38
2022/05/31 11:39:26;;;;;;;3.40;2.45;;;;;;;;;;4975151;28;20118;-38
2022/05/31 11:41:53;;;;;;;3.35;1.83;;;;;;;;;;4976156;28;20571;-39
2022/05/31 11:44:18;;;;;;;4.18;1.70;;;;;;;;;;4976238;28;20026;-42
2022/05/31 11:46:44;;;;;;;2.97;2.42;;;;;;;;;;4975920;28;20094;-39
2022/05/31 11:49:16;;;;;;;2.17;1.88;;;;;;;;;;4976004;28;20042;-38
2022/05/31 11:51:53;;;;;;;5.88;2.05;;;;;;;;;;4975958;28;20031;-39
2022/05/31 11:54:31;;;;;;;1.80;1.52;;;;;;;;;;4974426;28;20398;-38
2022/05/31 11:56:57;;;;;;;3.55;1.63;;;;;;;;;;4975789;28;20030;-38
2022/05/31 11:59:43;;;;;;;3.95;1.98;;;;;;;;;;4976118;28;20557;-38
2022/05/31 12:02:14;;;;;;;5.35;1.50;;;;;;;;;;5102370;23;20060;-38
2022/05/31 12:04:44;;;;;;;6.03;1.83;;;;;;;;;;5034467;28;20033;-38
2022/05/31 12:07:20;;;;;;;8.73;2.60;;;;;;;;;;5034048;28;20037;-38
2022/05/31 12:09:56;;;;;;;4.32;1.98;;;;;;;;;;5034047;28;20068;-38
2022/05/31 12:12:32;;;;;;;6.28;1.92;;;;;;;;;;5033953;28;20479;-38
2022/05/31 12:15:07;;;;;;;2.75;2.30;;;;;;;;;;5033968;28;20080;-38
2022/05/31 12:17:39;;;;;;;2.17;1.40;;;;;;;;;;5034022;28;20075;-38
2022/05/31 12:20:12;;;;;;;5.10;2.63;;;;;;;;;;5033813;28;20087;-38
2022/05/31 12:22:40;;;;;;;3.03;1.67;;;;;;;;;;5033830;28;20083;-38
2022/05/31 12:25:16;;;;;;;3.05;1.75;;;;;;;;;;5034009;28;20036;-38
2022/05/31 12:27:52;;;;;;;2.90;1.75;;;;;;;;;;5033722;28;20042;-38
2022/05/31 12:30:19;;;;;;;4.10;2.20;;;;;;;;;;5033619;28;20044;-38
2022/05/31 12:32:45;;;;;;;2.30;1.92;;;;;;;;;;5033674;28;20029;-38
2022/05/31 12:35:31;;;;;;;2.72;1.77;;;;;;;;;;5033559;28;20457;-38
2022/05/31 12:38:00;;;;;;;3.97;2.20;;;;;;;;;;5019455;28;20045;-38
2022/05/31 12:40:25;;;;;;;2.47;1.63;;;;;;;;;;5032674;28;20021;-38
2022/05/31 12:42:50;;;;;;;2.25;1.50;;;;;;;;;;5033551;28;20036;-38
2022/05/31 12:45:23;;;;;;;3.97;1.98;;;;;;;;;;5033338;28;20021;-38
2022/05/31 12:47:51;;;;;;;7.65;2.15;;;;;;;;;;5015651;28;20517;-38
2022/05/31 12:50:36;;;;;;;5.65;1.80;;;;;;;;;;5033324;28;20049;-38
2022/05/31 12:53:35;;;;;;;1.95;1.45;;;;;;;;;;5033094;28;20111;-39
2022/05/31 12:55:55;;;;;;;3.60;1.75;;;;;;;;;;5030393;28;20541;-38
2022/05/31 12:58:28;;;;;;;2.90;1.75;;;;;;;;;;5033080;28;20467;-38
2022/05/31 13:00:58;;;;;;;5.32;2.03;;;;;;;;;;5033126;28;20059;-39
2022/05/31 13:03:32;;;;;;;2.20;1.85;;;;;;;;;;5032943;28;20399;-38
2022/05/31 13:06:05;;;;;;;4.75;1.98;;;;;;;;;;5032958;28;20049;-38
2022/05/31 13:08:42;;;;;;;2.40;1.73;;;;;;;;;;5033094;28;20038;-38
2022/05/31 13:19:41;;;;;;;4.10;1.55;;;;;;;;;;5032795;28;20029;-38
2022/05/31 13:22:10;;;;;;;1.75;1.50;;;;;;;;;;5032946;28;20368;-38
2022/05/31 13:24:42;;;;;;;1.40;1.30;;;;;;;;;;5032751;28;20490;-38
2022/05/31 13:27:08;;;;;;;2.22;1.80;;;;;;;;;;5032675;28;20376;-38
2022/05/31 13:29:33;;;;;;;5.30;2.30;;;;;;;;;;5032639;28;20379;-38
2022/05/31 13:32:02;;;;;;;1.42;1.33;;;;;;;;;;5032788;28;20037;-38
2022/05/31 13:34:36;;;;;;;7.60;1.80;;;;;;;;;;5032655;28;20032;-38
2022/05/31 13:37:03;;;;;;;1.48;1.35;;;;;;;;;;5032770;28;20644;-38
2022/05/31 13:39:31;;;;;;;4.95;1.52;;;;;;;;;;5032469;28;20022;-38
2022/05/31 13:41:58;;;;;;;2.75;1.50;;;;;;;;;;5032321;28;20033;-38
2022/05/31 13:44:29;;;;;;;5.13;1.60;;;;;;;;;;5032225;28;20490;-38
2022/05/31 13:46:58;;;;;;;2.47;1.65;;;;;;;;;;5032514;28;20502;-38
2022/05/31 13:49:26;;;;;;;6.88;1.45;;;;;;;;;;5032150;28;20103;-38
2022/05/31 13:51:55;;;;;;;2.42;1.40;;;;;;;;;;5032393;28;20025;-38
2022/05/31 13:54:23;;;;;;;5.13;1.70;;;;;;;;;;5032076;28;20029;-38
2022/05/31 13:56:49;;;;;;;4.00;1.23;;;;;;;;;;5032136;28;20025;-38
2022/05/31 13:59:33;;;;;;;2.08;1.60;;;;;;;;;;5032018;28;20049;-38
2022/05/31 14:01:59;;;;;;;2.15;1.77;;;;;;;;;;5032026;28;20056;-39
2022/05/31 14:04:35;;;;;;;3.97;1.60;;;;;;;;;;5031866;28;20121;-38
2022/05/31 14:07:05;;;;;;;2.03;1.48;;;;;;;;;;5032145;28;20091;-38
2022/05/31 14:09:36;;;;;;;1.77;1.35;;;;;;;;;;5032158;28;20026;-38
2022/05/31 14:12:06;;;;;;;3.25;1.25;;;;;;;;;;5032082;28;20466;-39
2022/05/31 14:14:34;;;;;;;1.83;1.30;;;;;;;;;;5014503;28;20387;-38
2022/05/31 14:17:00;;;;;;;4.55;1.65;;;;;;;;;;5031636;28;20108;-38
2022/05/31 14:19:28;;;;;;;2.20;1.50;;;;;;;;;;5031803;28;20017;-38
2022/05/31 14:21:58;;;;;;;4.07;1.88;;;;;;;;;;5031682;28;20049;-38
2022/05/31 14:24:25;;;;;;;1.80;1.40;;;;;;;;;;5031531;28;20471;-38
2022/05/31 14:26:52;;;;;;;2.40;1.15;;;;;;;;;;5031624;28;20048;-38
2022/05/31 14:29:24;;;;;;;2.40;1.38;;;;;;;;;;5031530;28;20037;-45
2022/05/31 14:31:53;;;;;;;4.38;1.48;;;;;;;;;;5031489;28;20430;-38
2022/05/31 14:34:23;;;;;;;1.13;1.00;;;;;;;;;;5031448;28;20027;-38
2022/05/31 14:36:50;;;;;;;2.20;1.33;;;;;;;;;;5031506;28;20033;-38
2022/05/31 14:39:20;;;;;;;2.53;1.60;;;;;;;;;;5031330;28;20021;-38
2022/05/31 14:41:47;;;;;;;2.53;1.45;;;;;;;;;;5031437;28;20036;-38
2022/05/31 14:44:35;;;;;;;2.67;1.50;;;;;;;;;;5031418;28;20101;-39
2022/05/31 14:47:06;;;;;;;1.75;1.65;;;;;;;;;;5031291;28;20099;-38
2022/05/31 14:49:38;;;;;;;2.03;1.40;;;;;;;;;;5031440;28;20076;-38
2022/05/31 14:52:19;;;;;;;9.70;1.45;;;;;;;;;;5031211;28;20061;-38
2022/05/31 14:54:49;;;;;;;1.83;1.27;;;;;;;;;;5031411;28;20022;-38
2022/05/31 14:57:25;;;;;;;1.40;1.17;;;;;;;;;;5031513;28;20049;-38
2022/05/31 14:59:55;;;;;;;2.05;1.00;;;;;;;;;;5031301;28;20021;-38
2022/05/31 15:02:27;;;;;;;3.45;1.30;;;;;;;;;;5031663;28;20128;-39
2022/05/31 15:04:56;;;;;;;2.95;1.38;;;;;;;;;;5035421;28;20399;-38
2022/05/31 15:07:23;;;;;;;2.90;1.77;;;;;;;;;;5035261;28;20045;-38
2022/05/31 15:10:09;;;;;;;2.92;1.55;;;;;;;;;;5035248;28;20113;-38
2022/05/31 15:20:56;;;;;;;2.72;1.85;;;;;;;;;;5035126;28;20083;-38
2022/05/31 15:23:26;;;;;;;5.22;1.05;;;;;;;;;;5034787;28;20068;-38
2022/05/31 15:25:53;;;;;;;1.73;1.40;;;;;;;;;;5034913;28;20124;-38
2022/05/31 15:28:19;;;;;;;1.95;1.48;;;;;;;;;;5035062;28;20030;-38
2022/05/31 15:30:44;;;;;;;1.60;1.33;;;;;;;;;;5034810;28;20391;-38
2022/05/31 15:33:10;;;;;;;1.60;1.50;;;;;;;;;;5034815;28;20078;-39
2022/05/31 15:35:35;;;;;;;1.60;1.42;;;;;;;;;;5034979;28;20033;-38
2022/05/31 15:38:06;;;;;;;2.05;1.20;;;;;;;;;;5034701;28;20123;-38
2022/05/31 15:40:31;;;;;;;9.02;1.27;;;;;;;;;;5034684;28;20029;-38
2022/05/31 15:42:57;;;;;;;1.90;1.20;;;;;;;;;;5034511;28;20036;-38
2022/05/31 15:45:23;;;;;;;4.50;1.48;;;;;;;;;;5034391;28;20022;-38
2022/05/31 15:47:48;;;;;;;2.58;1.17;;;;;;;;;;5034767;28;20463;-38
2022/05/31 15:50:13;;;;;;;3.08;1.38;;;;;;;;;;5034348;28;20041;-38
2022/05/31 15:52:43;;;;;;;3.80;1.52;;;;;;;;;;5034300;28;20029;-38